sensor_id;sensor_type;location;lat;lon;timestamp;temperature;humidity
25550;DHT22;13444;50.562;7.262;2024-02-14T00:00:10;9.00;96.70
25550;DHT22;13444;50.562;7.262;2024-02-14T00:02:40;9.00;97.40
25550;DHT22;13444;50.562;7.262;2024-02-14T00:05:07;8.90;98.00
25550;DHT22;13444;50.562;7.262;2024-02-14T00:07:33;8.90;99.90
25550;DHT22;13444;50.562;7.262;2024-02-14T00:09:58;9.00;98.40
25550;DHT22;13444;50.562;7.262;2024-02-14T00:12:24;9.00;95.40
25550;DHT22;13444;50.562;7.262;2024-02-14T00:14:50;9.00;94.10
25550;DHT22;13444;50.562;7.262;2024-02-14T00:17:16;9.10;91.30
25550;DHT22;13444;50.562;7.262;2024-02-14T00:19:41;9.10;92.40
25550;DHT22;13444;50.562;7.262;2024-02-14T00:22:07;9.10;92.70
25550;DHT22;13444;50.562;7.262;2024-02-14T00:24:32;9.10;92.00
25550;DHT22;13444;50.562;7.262;2024-02-14T00:26:59;9.10;91.80
25550;DHT22;13444;50.562;7.262;2024-02-14T00:29:26;9.20;92.30
25550;DHT22;13444;50.562;7.262;2024-02-14T00:31:51;9.20;91.50
25550;DHT22;13444;50.562;7.262;2024-02-14T00:34:17;9.20;92.20
25550;DHT22;13444;50.562;7.262;2024-02-14T00:36:42;9.20;90.80
25550;DHT22;13444;50.562;7.262;2024-02-14T00:39:08;9.20;90.10
25550;DHT22;13444;50.562;7.262;2024-02-14T00:41:35;9.20;90.60
25550;DHT22;13444;50.562;7.262;2024-02-14T00:44:01;9.20;88.90
25550;DHT22;13444;50.562;7.262;2024-02-14T00:46:28;9.30;91.30
25550;DHT22;13444;50.562;7.262;2024-02-14T00:48:54;9.20;90.30
25550;DHT22;13444;50.562;7.262;2024-02-14T00:51:21;9.20;91.00
25550;DHT22;13444;50.562;7.262;2024-02-14T00:53:46;9.20;91.70
25550;DHT22;13444;50.562;7.262;2024-02-14T00:56:12;9.30;91.50
25550;DHT22;13444;50.562;7.262;2024-02-14T00:58:37;9.20;92.40
25550;DHT22;13444;50.562;7.262;2024-02-14T01:01:03;9.30;92.20
25550;DHT22;13444;50.562;7.262;2024-02-14T01:03:29;9.30;92.40
25550;DHT22;13444;50.562;7.262;2024-02-14T01:05:54;9.30;91.80
25550;DHT22;13444;50.562;7.262;2024-02-14T01:08:20;9.30;93.70
25550;DHT22;13444;50.562;7.262;2024-02-14T01:10:46;9.30;93.30
25550;DHT22;13444;50.562;7.262;2024-02-14T01:13:12;9.30;92.90
25550;DHT22;13444;50.562;7.262;2024-02-14T01:15:38;9.30;93.70
25550;DHT22;13444;50.562;7.262;2024-02-14T01:18:03;9.30;94.80
25550;DHT22;13444;50.562;7.262;2024-02-14T01:20:29;9.30;93.80
25550;DHT22;13444;50.562;7.262;2024-02-14T01:22:55;9.30;94.20
25550;DHT22;13444;50.562;7.262;2024-02-14T01:25:20;9.30;95.10
25550;DHT22;13444;50.562;7.262;2024-02-14T01:27:46;9.30;95.40
25550;DHT22;13444;50.562;7.262;2024-02-14T01:30:13;9.30;96.40
25550;DHT22;13444;50.562;7.262;2024-02-14T01:32:40;9.20;96.20
25550;DHT22;13444;50.562;7.262;2024-02-14T01:35:06;9.30;96.10
25550;DHT22;13444;50.562;7.262;2024-02-14T01:37:31;9.30;96.80
25550;DHT22;13444;50.562;7.262;2024-02-14T01:39:57;9.30;97.20
25550;DHT22;13444;50.562;7.262;2024-02-14T01:42:22;9.30;96.70
25550;DHT22;13444;50.562;7.262;2024-02-14T01:44:48;9.30;97.20
25550;DHT22;13444;50.562;7.262;2024-02-14T01:47:14;9.30;99.20
25550;DHT22;13444;50.562;7.262;2024-02-14T01:49:40;9.30;99.90
25550;DHT22;13444;50.562;7.262;2024-02-14T01:52:10;9.20;99.80
25550;DHT22;13444;50.562;7.262;2024-02-14T01:54:35;9.20;99.90
25550;DHT22;13444;50.562;7.262;2024-02-14T01:57:01;9.20;99.90
25550;DHT22;13444;50.562;7.262;2024-02-14T01:59:28;9.20;99.90
25550;DHT22;13444;50.562;7.262;2024-02-14T02:01:54;9.20;99.90
25550;DHT22;13444;50.562;7.262;2024-02-14T02:04:19;9.20;99.90
25550;DHT22;13444;50.562;7.262;2024-02-14T02:06:46;9.20;99.90
25550;DHT22;13444;50.562;7.262;2024-02-14T02:09:11;9.20;99.90
25550;DHT22;13444;50.562;7.262;2024-02-14T02:11:46;9.20;99.90
25550;DHT22;13444;50.562;7.262;2024-02-14T02:14:13;9.20;99.90
25550;DHT22;13444;50.562;7.262;2024-02-14T02:16:39;9.20;99.90
25550;DHT22;13444;50.562;7.262;2024-02-14T02:19:04;9.10;99.90
25550;DHT22;13444;50.562;7.262;2024-02-14T02:21:34;9.10;99.90
25550;DHT22;13444;50.562;7.262;2024-02-14T02:24:00;9.10;99.90
25550;DHT22;13444;50.562;7.262;2024-02-14T02:26:26;9.10;99.90
25550;DHT22;13444;50.562;7.262;2024-02-14T02:28:52;9.10;99.90
25550;DHT22;13444;50.562;7.262;2024-02-14T02:31:18;9.10;99.90
25550;DHT22;13444;50.562;7.262;2024-02-14T02:33:43;9.10;99.90
25550;DHT22;13444;50.562;7.262;2024-02-14T02:36:09;9.10;99.90
25550;DHT22;13444;50.562;7.262;2024-02-14T02:38:35;9.10;99.90
25550;DHT22;13444;50.562;7.262;2024-02-14T02:41:05;9.00;99.90
25550;DHT22;13444;50.562;7.262;2024-02-14T02:43:34;9.00;99.90
25550;DHT22;13444;50.562;7.262;2024-02-14T02:46:00;9.00;99.90
25550;DHT22;13444;50.562;7.262;2024-02-14T02:48:25;9.00;99.90
25550;DHT22;13444;50.562;7.262;2024-02-14T02:50:51;9.00;99.90
25550;DHT22;13444;50.562;7.262;2024-02-14T02:53:17;9.00;99.90
25550;DHT22;13444;50.562;7.262;2024-02-14T02:55:43;9.00;99.90
25550;DHT22;13444;50.562;7.262;2024-02-14T02:58:09;9.00;99.90
25550;DHT22;13444;50.562;7.262;2024-02-14T03:00:34;9.00;99.90
25550;DHT22;13444;50.562;7.262;2024-02-14T03:03:00;9.00;99.90
25550;DHT22;13444;50.562;7.262;2024-02-14T03:05:26;9.00;99.90
25550;DHT22;13444;50.562;7.262;2024-02-14T03:07:51;9.00;99.90
25550;DHT22;13444;50.562;7.262;2024-02-14T03:10:18;9.00;99.90
25550;DHT22;13444;50.562;7.262;2024-02-14T03:12:46;9.10;99.90
25550;DHT22;13444;50.562;7.262;2024-02-14T03:15:12;9.10;99.90
25550;DHT22;13444;50.562;7.262;2024-02-14T03:17:39;9.10;99.90
25550;DHT22;13444;50.562;7.262;2024-02-14T03:20:05;9.20;99.90
25550;DHT22;13444;50.562;7.262;2024-02-14T03:22:43;9.10;99.90
25550;DHT22;13444;50.562;7.262;2024-02-14T03:25:21;9.10;99.90
25550;DHT22;13444;50.562;7.262;2024-02-14T03:27:47;9.10;99.90
25550;DHT22;13444;50.562;7.262;2024-02-14T03:30:16;9.10;99.90
25550;DHT22;13444;50.562;7.262;2024-02-14T03:32:43;9.10;99.90
25550;DHT22;13444;50.562;7.262;2024-02-14T03:35:09;9.10;99.90
25550;DHT22;13444;50.562;7.262;2024-02-14T03:37:37;9.10;99.90
25550;DHT22;13444;50.562;7.262;2024-02-14T03:40:05;9.10;99.90
25550;DHT22;13444;50.562;7.262;2024-02-14T03:42:30;9.20;99.90
25550;DHT22;13444;50.562;7.262;2024-02-14T03:44:56;9.10;99.90
25550;DHT22;13444;50.562;7.262;2024-02-14T03:47:28;9.20;99.90
25550;DHT22;13444;50.562;7.262;2024-02-14T03:49:54;9.20;99.90
25550;DHT22;13444;50.562;7.262;2024-02-14T03:52:20;9.20;99.90
25550;DHT22;13444;50.562;7.262;2024-02-14T03:54:48;9.20;99.90
25550;DHT22;13444;50.562;7.262;2024-02-14T03:57:13;9.20;99.90
25550;DHT22;13444;50.562;7.262;2024-02-14T03:59:38;9.20;99.90
25550;DHT22;13444;50.562;7.262;2024-02-14T04:02:04;9.20;99.90
25550;DHT22;13444;50.562;7.262;2024-02-14T04:04:32;9.20;99.90
25550;DHT22;13444;50.562;7.262;2024-02-14T04:06:58;9.20;99.90
25550;DHT22;13444;50.562;7.262;2024-02-14T04:09:26;9.20;99.90
25550;DHT22;13444;50.562;7.262;2024-02-14T04:11:51;9.20;99.90
25550;DHT22;13444;50.562;7.262;2024-02-14T04:14:17;9.20;99.90
25550;DHT22;13444;50.562;7.262;2024-02-14T04:16:43;9.10;99.90
25550;DHT22;13444;50.562;7.262;2024-02-14T04:19:08;9.20;99.90
25550;DHT22;13444;50.562;7.262;2024-02-14T04:21:37;9.10;99.90
25550;DHT22;13444;50.562;7.262;2024-02-14T04:24:03;9.20;99.90
25550;DHT22;13444;50.562;7.262;2024-02-14T04:26:28;9.20;99.90
25550;DHT22;13444;50.562;7.262;2024-02-14T04:28:54;9.20;99.90
25550;DHT22;13444;50.562;7.262;2024-02-14T04:31:20;9.20;99.90
25550;DHT22;13444;50.562;7.262;2024-02-14T04:33:45;9.10;99.90
25550;DHT22;13444;50.562;7.262;2024-02-14T04:36:20;9.10;99.90
25550;DHT22;13444;50.562;7.262;2024-02-14T04:38:46;9.10;99.90
25550;DHT22;13444;50.562;7.262;2024-02-14T04:41:12;9.10;99.90
25550;DHT22;13444;50.562;7.262;2024-02-14T04:43:38;9.10;99.90
25550;DHT22;13444;50.562;7.262;2024-02-14T04:46:04;9.10;99.90
25550;DHT22;13444;50.562;7.262;2024-02-14T04:48:33;9.10;99.90
25550;DHT22;13444;50.562;7.262;2024-02-14T04:50:58;9.10;99.90
25550;DHT22;13444;50.562;7.262;2024-02-14T04:53:24;9.10;99.90
25550;DHT22;13444;50.562;7.262;2024-02-14T04:55:50;9.10;99.90
25550;DHT22;13444;50.562;7.262;2024-02-14T04:58:15;9.10;99.90
25550;DHT22;13444;50.562;7.262;2024-02-14T05:00:42;9.10;99.90
25550;DHT22;13444;50.562;7.262;2024-02-14T05:03:07;9.10;99.90
25550;DHT22;13444;50.562;7.262;2024-02-14T05:05:33;9.20;99.90
25550;DHT22;13444;50.562;7.262;2024-02-14T05:08:01;9.10;99.90
25550;DHT22;13444;50.562;7.262;2024-02-14T05:10:31;9.10;99.90
25550;DHT22;13444;50.562;7.262;2024-02-14T05:12:57;9.10;99.90
25550;DHT22;13444;50.562;7.262;2024-02-14T05:15:22;9.10;99.90
25550;DHT22;13444;50.562;7.262;2024-02-14T05:17:49;9.10;99.90
25550;DHT22;13444;50.562;7.262;2024-02-14T05:20:16;9.10;99.90
25550;DHT22;13444;50.562;7.262;2024-02-14T05:22:41;9.10;99.90
25550;DHT22;13444;50.562;7.262;2024-02-14T05:25:07;9.10;99.90
25550;DHT22;13444;50.562;7.262;2024-02-14T05:27:34;9.20;99.90
25550;DHT22;13444;50.562;7.262;2024-02-14T05:30:00;9.20;99.90
25550;DHT22;13444;50.562;7.262;2024-02-14T05:32:26;9.20;99.90
25550;DHT22;13444;50.562;7.262;2024-02-14T05:34:51;9.20;99.90
25550;DHT22;13444;50.562;7.262;2024-02-14T05:37:17;9.20;99.90
25550;DHT22;13444;50.562;7.262;2024-02-14T05:39:42;9.20;99.90
25550;DHT22;13444;50.562;7.262;2024-02-14T05:42:08;9.20;99.90
25550;DHT22;13444;50.562;7.262;2024-02-14T05:44:34;9.20;99.90
25550;DHT22;13444;50.562;7.262;2024-02-14T05:46:59;9.20;99.90
25550;DHT22;13444;50.562;7.262;2024-02-14T05:49:25;9.20;99.90
25550;DHT22;13444;50.562;7.262;2024-02-14T05:51:51;9.20;99.90
25550;DHT22;13444;50.562;7.262;2024-02-14T05:54:18;9.20;99.90
25550;DHT22;13444;50.562;7.262;2024-02-14T05:56:44;9.20;99.90
25550;DHT22;13444;50.562;7.262;2024-02-14T05:59:10;9.20;99.90
25550;DHT22;13444;50.562;7.262;2024-02-14T06:01:35;9.20;99.90
25550;DHT22;13444;50.562;7.262;2024-02-14T06:04:01;9.20;99.90
25550;DHT22;13444;50.562;7.262;2024-02-14T06:06:27;9.20;99.90
25550;DHT22;13444;50.562;7.262;2024-02-14T06:08:52;9.30;99.90
25550;DHT22;13444;50.562;7.262;2024-02-14T06:11:18;9.30;99.90
25550;DHT22;13444;50.562;7.262;2024-02-14T06:13:47;9.20;99.90
25550;DHT22;13444;50.562;7.262;2024-02-14T06:16:13;9.30;99.90
25550;DHT22;13444;50.562;7.262;2024-02-14T06:18:38;9.20;99.90
25550;DHT22;13444;50.562;7.262;2024-02-14T06:21:05;9.20;99.90
25550;DHT22;13444;50.562;7.262;2024-02-14T06:23:30;9.30;99.90
25550;DHT22;13444;50.562;7.262;2024-02-14T06:25:56;9.30;99.90
25550;DHT22;13444;50.562;7.262;2024-02-14T06:28:22;9.30;99.90
25550;DHT22;13444;50.562;7.262;2024-02-14T06:30:48;9.30;99.90
25550;DHT22;13444;50.562;7.262;2024-02-14T06:33:13;9.30;99.90
25550;DHT22;13444;50.562;7.262;2024-02-14T06:35:39;9.30;99.90
25550;DHT22;13444;50.562;7.262;2024-02-14T06:38:04;9.40;99.90
25550;DHT22;13444;50.562;7.262;2024-02-14T06:40:31;9.40;99.90
25550;DHT22;13444;50.562;7.262;2024-02-14T06:42:57;9.40;99.90
25550;DHT22;13444;50.562;7.262;2024-02-14T06:45:25;9.40;99.90
25550;DHT22;13444;50.562;7.262;2024-02-14T06:47:50;9.40;99.90
25550;DHT22;13444;50.562;7.262;2024-02-14T06:50:16;9.40;99.90
25550;DHT22;13444;50.562;7.262;2024-02-14T06:52:41;9.30;99.90
25550;DHT22;13444;50.562;7.262;2024-02-14T06:55:07;9.40;99.90
25550;DHT22;13444;50.562;7.262;2024-02-14T06:57:33;9.30;99.90
25550;DHT22;13444;50.562;7.262;2024-02-14T06:59:58;9.30;99.90
25550;DHT22;13444;50.562;7.262;2024-02-14T07:02:24;9.40;99.90
25550;DHT22;13444;50.562;7.262;2024-02-14T07:04:53;9.30;99.90
25550;DHT22;13444;50.562;7.262;2024-02-14T07:07:19;9.30;99.90
25550;DHT22;13444;50.562;7.262;2024-02-14T07:09:44;9.30;99.90
25550;DHT22;13444;50.562;7.262;2024-02-14T07:12:10;9.40;99.90
25550;DHT22;13444;50.562;7.262;2024-02-14T07:14:35;9.30;99.90
25550;DHT22;13444;50.562;7.262;2024-02-14T07:17:01;9.40;99.90
25550;DHT22;13444;50.562;7.262;2024-02-14T07:19:27;9.40;99.90
25550;DHT22;13444;50.562;7.262;2024-02-14T07:21:53;9.40;99.90
25550;DHT22;13444;50.562;7.262;2024-02-14T07:24:18;9.40;99.90
25550;DHT22;13444;50.562;7.262;2024-02-14T07:26:44;9.40;99.90
25550;DHT22;13444;50.562;7.262;2024-02-14T07:29:10;9.40;99.90
25550;DHT22;13444;50.562;7.262;2024-02-14T07:31:35;9.40;99.90
25550;DHT22;13444;50.562;7.262;2024-02-14T07:34:01;9.50;99.90
25550;DHT22;13444;50.562;7.262;2024-02-14T07:36:31;9.40;99.90
25550;DHT22;13444;50.562;7.262;2024-02-14T07:38:57;9.50;99.90
25550;DHT22;13444;50.562;7.262;2024-02-14T07:41:22;9.50;99.90
25550;DHT22;13444;50.562;7.262;2024-02-14T07:43:48;9.50;99.90
25550;DHT22;13444;50.562;7.262;2024-02-14T07:46:18;9.60;99.90
25550;DHT22;13444;50.562;7.262;2024-02-14T07:48:44;9.50;99.90
25550;DHT22;13444;50.562;7.262;2024-02-14T07:51:10;9.60;99.90
25550;DHT22;13444;50.562;7.262;2024-02-14T07:53:35;9.70;99.90
25550;DHT22;13444;50.562;7.262;2024-02-14T07:56:01;9.70;99.90
25550;DHT22;13444;50.562;7.262;2024-02-14T07:58:26;9.70;99.90
25550;DHT22;13444;50.562;7.262;2024-02-14T08:00:52;9.70;99.90
25550;DHT22;13444;50.562;7.262;2024-02-14T08:03:17;9.70;99.90
25550;DHT22;13444;50.562;7.262;2024-02-14T08:05:43;9.80;99.90
25550;DHT22;13444;50.562;7.262;2024-02-14T08:08:08;9.80;99.90
25550;DHT22;13444;50.562;7.262;2024-02-14T08:10:34;9.80;99.90
25550;DHT22;13444;50.562;7.262;2024-02-14T08:12:59;9.90;99.90
25550;DHT22;13444;50.562;7.262;2024-02-14T08:15:25;9.90;99.90
25550;DHT22;13444;50.562;7.262;2024-02-14T08:17:50;10.00;99.90
25550;DHT22;13444;50.562;7.262;2024-02-14T08:20:22;10.00;99.90
25550;DHT22;13444;50.562;7.262;2024-02-14T08:22:48;10.10;99.90
25550;DHT22;13444;50.562;7.262;2024-02-14T08:25:14;10.00;99.90
25550;DHT22;13444;50.562;7.262;2024-02-14T08:27:40;10.10;99.90
25550;DHT22;13444;50.562;7.262;2024-02-14T08:30:06;10.10;99.90
25550;DHT22;13444;50.562;7.262;2024-02-14T08:32:33;10.20;99.90
25550;DHT22;13444;50.562;7.262;2024-02-14T08:34:58;10.20;99.90
25550;DHT22;13444;50.562;7.262;2024-02-14T08:37:24;10.20;99.90
25550;DHT22;13444;50.562;7.262;2024-02-14T08:39:50;10.30;99.90
25550;DHT22;13444;50.562;7.262;2024-02-14T08:42:16;10.30;99.90
25550;DHT22;13444;50.562;7.262;2024-02-14T08:44:41;10.40;99.90
25550;DHT22;13444;50.562;7.262;2024-02-14T08:47:07;10.40;99.90
25550;DHT22;13444;50.562;7.262;2024-02-14T08:49:32;10.60;99.90
25550;DHT22;13444;50.562;7.262;2024-02-14T08:51:59;10.60;99.90
25550;DHT22;13444;50.562;7.262;2024-02-14T08:54:24;10.60;99.90
25550;DHT22;13444;50.562;7.262;2024-02-14T08:56:50;10.70;99.90
25550;DHT22;13444;50.562;7.262;2024-02-14T08:59:18;10.60;99.90
25550;DHT22;13444;50.562;7.262;2024-02-14T09:01:45;10.70;99.90
25550;DHT22;13444;50.562;7.262;2024-02-14T09:04:11;10.70;99.90
25550;DHT22;13444;50.562;7.262;2024-02-14T09:06:36;10.80;99.90
25550;DHT22;13444;50.562;7.262;2024-02-14T09:09:04;10.80;99.90
25550;DHT22;13444;50.562;7.262;2024-02-14T09:11:30;10.80;99.90
25550;DHT22;13444;50.562;7.262;2024-02-14T09:13:57;10.90;99.90
25550;DHT22;13444;50.562;7.262;2024-02-14T09:16:29;11.00;99.90
25550;DHT22;13444;50.562;7.262;2024-02-14T09:18:55;11.10;99.90
25550;DHT22;13444;50.562;7.262;2024-02-14T09:21:21;11.20;99.90
25550;DHT22;13444;50.562;7.262;2024-02-14T09:23:47;11.30;99.90
25550;DHT22;13444;50.562;7.262;2024-02-14T09:26:13;11.30;99.90
25550;DHT22;13444;50.562;7.262;2024-02-14T09:28:41;11.50;99.90
25550;DHT22;13444;50.562;7.262;2024-02-14T09:31:07;11.90;99.90
25550;DHT22;13444;50.562;7.262;2024-02-14T09:33:35;12.40;99.90
25550;DHT22;13444;50.562;7.262;2024-02-14T09:36:02;12.80;95.80
25550;DHT22;13444;50.562;7.262;2024-02-14T09:38:28;12.80;99.90
25550;DHT22;13444;50.562;7.262;2024-02-14T09:41:00;13.00;94.50
25550;DHT22;13444;50.562;7.262;2024-02-14T09:43:38;13.10;92.00
25550;DHT22;13444;50.562;7.262;2024-02-14T09:46:06;12.90;93.00
25550;DHT22;13444;50.562;7.262;2024-02-14T09:48:32;12.80;91.70
25550;DHT22;13444;50.562;7.262;2024-02-14T09:50:59;12.70;94.40
25550;DHT22;13444;50.562;7.262;2024-02-14T09:53:26;12.70;95.40
25550;DHT22;13444;50.562;7.262;2024-02-14T09:55:54;12.70;97.90
25550;DHT22;13444;50.562;7.262;2024-02-14T09:58:20;12.60;95.20
25550;DHT22;13444;50.562;7.262;2024-02-14T10:00:46;12.70;96.60
25550;DHT22;13444;50.562;7.262;2024-02-14T10:03:12;12.70;93.80
25550;DHT22;13444;50.562;7.262;2024-02-14T10:05:38;12.80;97.20
25550;DHT22;13444;50.562;7.262;2024-02-14T10:08:03;12.70;97.50
25550;DHT22;13444;50.562;7.262;2024-02-14T10:10:32;12.80;97.20
25550;DHT22;13444;50.562;7.262;2024-02-14T10:12:57;12.90;92.30
25550;DHT22;13444;50.562;7.262;2024-02-14T10:15:23;12.90;94.40
25550;DHT22;13444;50.562;7.262;2024-02-14T10:17:49;13.10;94.00
25550;DHT22;13444;50.562;7.262;2024-02-14T10:20:17;13.20;92.60
25550;DHT22;13444;50.562;7.262;2024-02-14T10:22:43;13.30;92.90
25550;DHT22;13444;50.562;7.262;2024-02-14T10:25:10;13.50;90.20
25550;DHT22;13444;50.562;7.262;2024-02-14T10:27:39;13.90;85.50
25550;DHT22;13444;50.562;7.262;2024-02-14T10:30:09;14.10;70.20
25550;DHT22;13444;50.562;7.262;2024-02-14T10:32:35;14.20;64.50
25550;DHT22;13444;50.562;7.262;2024-02-14T10:35:04;14.40;54.00
25550;DHT22;13444;50.562;7.262;2024-02-14T10:37:34;14.40;56.10
25550;DHT22;13444;50.562;7.262;2024-02-14T10:40:02;14.70;54.30
25550;DHT22;13444;50.562;7.262;2024-02-14T10:42:29;15.00;52.10
25550;DHT22;13444;50.562;7.262;2024-02-14T10:44:55;15.20;42.30
25550;DHT22;13444;50.562;7.262;2024-02-14T10:47:25;15.40;32.50
25550;DHT22;13444;50.562;7.262;2024-02-14T10:49:57;15.30;33.20
25550;DHT22;13444;50.562;7.262;2024-02-14T10:52:23;14.90;29.80
25550;DHT22;13444;50.562;7.262;2024-02-14T10:54:56;14.60;35.40
25550;DHT22;13444;50.562;7.262;2024-02-14T10:57:25;14.30;51.10
25550;DHT22;13444;50.562;7.262;2024-02-14T10:59:51;14.10;63.00
25550;DHT22;13444;50.562;7.262;2024-02-14T11:02:19;14.00;70.00
25550;DHT22;13444;50.562;7.262;2024-02-14T11:04:45;13.90;70.40
25550;DHT22;13444;50.562;7.262;2024-02-14T11:07:11;13.80;69.50
25550;DHT22;13444;50.562;7.262;2024-02-14T11:09:38;13.70;76.70
25550;DHT22;13444;50.562;7.262;2024-02-14T11:12:08;13.70;77.80
25550;DHT22;13444;50.562;7.262;2024-02-14T11:14:35;13.70;72.70
25550;DHT22;13444;50.562;7.262;2024-02-14T11:17:02;13.80;67.50
25550;DHT22;13444;50.562;7.262;2024-02-14T11:19:33;13.90;64.60
25550;DHT22;13444;50.562;7.262;2024-02-14T11:21:59;13.90;62.10
25550;DHT22;13444;50.562;7.262;2024-02-14T11:24:28;13.90;69.90
25550;DHT22;13444;50.562;7.262;2024-02-14T11:26:55;13.70;72.10
25550;DHT22;13444;50.562;7.262;2024-02-14T11:29:28;13.70;75.20
25550;DHT22;13444;50.562;7.262;2024-02-14T11:32:00;13.60;77.40
25550;DHT22;13444;50.562;7.262;2024-02-14T11:34:27;13.60;78.90
25550;DHT22;13444;50.562;7.262;2024-02-14T11:36:53;13.50;83.60
25550;DHT22;13444;50.562;7.262;2024-02-14T11:39:20;13.50;86.40
25550;DHT22;13444;50.562;7.262;2024-02-14T11:41:45;13.40;89.20
25550;DHT22;13444;50.562;7.262;2024-02-14T11:44:11;13.40;90.00
25550;DHT22;13444;50.562;7.262;2024-02-14T11:46:39;13.40;89.40
25550;DHT22;13444;50.562;7.262;2024-02-14T11:49:07;13.30;91.70
25550;DHT22;13444;50.562;7.262;2024-02-14T11:51:34;13.20;93.00
25550;DHT22;13444;50.562;7.262;2024-02-14T11:54:01;13.10;94.90
25550;DHT22;13444;50.562;7.262;2024-02-14T11:56:35;13.10;96.00
25550;DHT22;13444;50.562;7.262;2024-02-14T11:59:02;13.10;96.40
25550;DHT22;13444;50.562;7.262;2024-02-14T12:01:38;13.10;97.50
25550;DHT22;13444;50.562;7.262;2024-02-14T12:04:08;13.10;98.00
25550;DHT22;13444;50.562;7.262;2024-02-14T12:06:35;13.10;98.80
25550;DHT22;13444;50.562;7.262;2024-02-14T12:09:05;13.00;99.50
25550;DHT22;13444;50.562;7.262;2024-02-14T12:11:32;13.00;99.80
25550;DHT22;13444;50.562;7.262;2024-02-14T12:14:03;13.00;99.90
25550;DHT22;13444;50.562;7.262;2024-02-14T12:16:28;13.10;99.50
25550;DHT22;13444;50.562;7.262;2024-02-14T12:19:09;13.20;99.50
25550;DHT22;13444;50.562;7.262;2024-02-14T12:21:36;13.20;99.40
25550;DHT22;13444;50.562;7.262;2024-02-14T12:24:04;13.10;99.50
25550;DHT22;13444;50.562;7.262;2024-02-14T12:26:30;13.10;99.90
25550;DHT22;13444;50.562;7.262;2024-02-14T12:28:57;13.10;99.90
25550;DHT22;13444;50.562;7.262;2024-02-14T12:31:23;13.20;99.90
25550;DHT22;13444;50.562;7.262;2024-02-14T12:33:49;13.20;99.90
25550;DHT22;13444;50.562;7.262;2024-02-14T12:36:15;13.20;99.90
25550;DHT22;13444;50.562;7.262;2024-02-14T12:38:40;13.20;99.90
25550;DHT22;13444;50.562;7.262;2024-02-14T12:41:06;13.20;99.90
25550;DHT22;13444;50.562;7.262;2024-02-14T12:43:31;13.20;99.90
25550;DHT22;13444;50.562;7.262;2024-02-14T12:45:57;13.30;99.90
25550;DHT22;13444;50.562;7.262;2024-02-14T12:48:24;13.40;99.90
25550;DHT22;13444;50.562;7.262;2024-02-14T12:50:53;13.40;99.90
25550;DHT22;13444;50.562;7.262;2024-02-14T12:53:18;13.50;99.90
25550;DHT22;13444;50.562;7.262;2024-02-14T12:55:45;13.50;99.90
25550;DHT22;13444;50.562;7.262;2024-02-14T12:58:11;13.60;99.90
25550;DHT22;13444;50.562;7.262;2024-02-14T13:00:37;13.60;99.90
25550;DHT22;13444;50.562;7.262;2024-02-14T13:03:03;13.70;99.90
25550;DHT22;13444;50.562;7.262;2024-02-14T13:05:29;13.70;99.90
25550;DHT22;13444;50.562;7.262;2024-02-14T13:07:55;13.70;99.90
25550;DHT22;13444;50.562;7.262;2024-02-14T13:10:22;13.70;99.90
25550;DHT22;13444;50.562;7.262;2024-02-14T13:12:47;13.70;99.90
25550;DHT22;13444;50.562;7.262;2024-02-14T13:15:13;13.70;99.90
25550;DHT22;13444;50.562;7.262;2024-02-14T13:17:38;13.70;99.90
25550;DHT22;13444;50.562;7.262;2024-02-14T13:20:04;13.60;99.90
25550;DHT22;13444;50.562;7.262;2024-02-14T13:22:30;13.60;99.90
25550;DHT22;13444;50.562;7.262;2024-02-14T13:24:56;13.40;99.90
25550;DHT22;13444;50.562;7.262;2024-02-14T13:27:21;13.30;99.90
25550;DHT22;13444;50.562;7.262;2024-02-14T13:29:48;13.30;99.90
25550;DHT22;13444;50.562;7.262;2024-02-14T13:32:15;13.20;99.90
25550;DHT22;13444;50.562;7.262;2024-02-14T13:34:40;13.20;99.90
25550;DHT22;13444;50.562;7.262;2024-02-14T13:37:06;13.10;99.90
25550;DHT22;13444;50.562;7.262;2024-02-14T13:39:32;13.00;99.90
25550;DHT22;13444;50.562;7.262;2024-02-14T13:41:58;13.00;99.90
25550;DHT22;13444;50.562;7.262;2024-02-14T13:44:25;12.80;99.90
25550;DHT22;13444;50.562;7.262;2024-02-14T13:46:50;12.80;99.90
25550;DHT22;13444;50.562;7.262;2024-02-14T13:49:18;12.80;99.90
25550;DHT22;13444;50.562;7.262;2024-02-14T13:51:51;12.80;99.90
25550;DHT22;13444;50.562;7.262;2024-02-14T13:54:17;12.80;99.90
25550;DHT22;13444;50.562;7.262;2024-02-14T13:56:43;12.70;99.90
25550;DHT22;13444;50.562;7.262;2024-02-14T13:59:08;12.70;99.90
25550;DHT22;13444;50.562;7.262;2024-02-14T14:01:34;12.70;99.90
25550;DHT22;13444;50.562;7.262;2024-02-14T14:03:59;12.70;99.90
25550;DHT22;13444;50.562;7.262;2024-02-14T14:06:25;12.60;99.90
25550;DHT22;13444;50.562;7.262;2024-02-14T14:08:51;12.60;99.90
25550;DHT22;13444;50.562;7.262;2024-02-14T14:11:17;12.60;99.90
25550;DHT22;13444;50.562;7.262;2024-02-14T14:13:42;12.60;99.90
25550;DHT22;13444;50.562;7.262;2024-02-14T14:16:08;12.50;99.90
25550;DHT22;13444;50.562;7.262;2024-02-14T14:18:35;12.60;99.90
25550;DHT22;13444;50.562;7.262;2024-02-14T14:21:00;12.50;99.90
25550;DHT22;13444;50.562;7.262;2024-02-14T14:23:26;12.50;99.90
25550;DHT22;13444;50.562;7.262;2024-02-14T14:25:52;12.40;99.90
25550;DHT22;13444;50.562;7.262;2024-02-14T14:28:17;12.30;99.90
25550;DHT22;13444;50.562;7.262;2024-02-14T14:30:45;12.30;99.90
25550;DHT22;13444;50.562;7.262;2024-02-14T14:33:10;12.20;99.90
25550;DHT22;13444;50.562;7.262;2024-02-14T14:35:36;12.10;99.90
25550;DHT22;13444;50.562;7.262;2024-02-14T14:38:05;12.10;99.90
25550;DHT22;13444;50.562;7.262;2024-02-14T14:40:32;12.00;99.90
25550;DHT22;13444;50.562;7.262;2024-02-14T14:42:57;12.00;99.90
25550;DHT22;13444;50.562;7.262;2024-02-14T14:45:23;11.90;99.90
25550;DHT22;13444;50.562;7.262;2024-02-14T14:47:48;11.90;99.90
25550;DHT22;13444;50.562;7.262;2024-02-14T14:50:15;12.00;99.90
25550;DHT22;13444;50.562;7.262;2024-02-14T14:52:43;11.90;99.90
25550;DHT22;13444;50.562;7.262;2024-02-14T14:55:10;11.90;99.90
25550;DHT22;13444;50.562;7.262;2024-02-14T14:57:36;11.90;99.90
25550;DHT22;13444;50.562;7.262;2024-02-14T15:00:07;11.90;99.90
25550;DHT22;13444;50.562;7.262;2024-02-14T15:02:35;11.90;99.90
25550;DHT22;13444;50.562;7.262;2024-02-14T15:05:00;11.90;99.90
25550;DHT22;13444;50.562;7.262;2024-02-14T15:07:26;11.90;99.90
25550;DHT22;13444;50.562;7.262;2024-02-14T15:09:52;11.90;99.90
25550;DHT22;13444;50.562;7.262;2024-02-14T15:12:18;11.90;99.90
25550;DHT22;13444;50.562;7.262;2024-02-14T15:14:43;11.90;99.90
25550;DHT22;13444;50.562;7.262;2024-02-14T15:17:09;11.90;99.90
25550;DHT22;13444;50.562;7.262;2024-02-14T15:19:34;11.90;99.90
25550;DHT22;13444;50.562;7.262;2024-02-14T15:22:00;11.90;99.90
25550;DHT22;13444;50.562;7.262;2024-02-14T15:24:29;11.90;99.90
25550;DHT22;13444;50.562;7.262;2024-02-14T15:26:54;11.80;99.90
25550;DHT22;13444;50.562;7.262;2024-02-14T15:29:25;11.80;99.90
25550;DHT22;13444;50.562;7.262;2024-02-14T15:32:10;11.80;99.90
25550;DHT22;13444;50.562;7.262;2024-02-14T15:34:54;11.80;99.90